EmailTwitter


Surface observations / United Kingdom / EGLC

Regions: Quebec | Canada | USA | Europe | France | UK | Elsewhere
Station
Display
Info & Location for EGLC | Help decoding METAR

Weather Conditions observed on 2017/08/20 at 12:50 UTC at LONDON CITY AIRP, UK (EGLC)

Temperature: 20.0 Celsius.

Dewpoint: 8.0 Celsius.

Relative Humidity: 46%

Winds: Southwest at 22 km/h or 12 knots.

Mean Sea level Pressure: 102.40 kilopascals.

Horizontal visibility: 6.21 statute miles or 9.94 kilometers.

Coded METAR:

EGLC 201250Z AUTO 24012KT 200V270 9999 NCD 20/08 Q1024=